createdAt,value
2022-09-01T00:04:56.368Z,3.62
2022-09-01T00:15:04.228Z,2.73
2022-09-01T00:25:12.199Z,1.8
2022-09-01T00:35:20.129Z,1.47
2022-09-01T00:45:27.627Z,1.75
2022-09-01T00:55:34.592Z,3.87
2022-09-01T01:05:42.474Z,1.74
2022-09-01T01:15:50.339Z,1.63
2022-09-01T01:25:58.306Z,1.44
2022-09-01T01:36:06.200Z,1.17
2022-09-01T01:46:14.093Z,1
2022-09-01T01:56:22.010Z,1.32
2022-09-01T02:06:29.973Z,1.09
2022-09-01T02:16:37.836Z,1.26
2022-09-01T02:26:45.604Z,1.87
2022-09-01T02:36:53.586Z,2.5
2022-09-01T02:47:01.106Z,2.89
2022-09-01T02:57:09.127Z,3.37
2022-09-01T03:07:17.102Z,3.01
2022-09-01T03:17:25.112Z,2.78
2022-09-01T03:27:33.153Z,2.52
2022-09-01T03:37:41.007Z,2.73
2022-09-01T03:47:49.029Z,3.11
2022-09-01T03:57:57.124Z,2.4
2022-09-01T04:08:05.092Z,2.21
2022-09-01T04:18:12.994Z,2.26
2022-09-01T04:28:20.981Z,2.1
2022-09-01T04:38:31.406Z,2.03
2022-09-01T04:48:28.364Z,3.07
2022-09-01T04:58:36.268Z,2.47
2022-09-01T05:08:44.350Z,2.39
2022-09-01T05:18:52.455Z,2.71
2022-09-01T05:29:01.009Z,3.07
2022-09-01T05:39:09.523Z,2.78
2022-09-01T05:49:17.957Z,2.86
2022-09-01T05:59:26.161Z,2.65
2022-09-01T06:09:32.766Z,2.87
2022-09-01T06:19:39.898Z,3
2022-09-01T06:29:48.512Z,2.65
2022-09-01T06:39:57.107Z,4.98
2022-09-01T06:50:04.801Z,2.8
2022-09-01T07:00:12.505Z,2.6
2022-09-01T07:10:21.163Z,2.81
2022-09-01T07:20:26.823Z,3
2022-09-01T07:30:34.730Z,3.14
2022-09-01T08:00:58.699Z,2.61
2022-09-01T08:11:06.159Z,2.13
2022-09-01T08:21:15.887Z,2.79
2022-09-01T08:31:24.559Z,2.2
2022-09-01T08:41:35.340Z,2.35
2022-09-01T08:51:40.485Z,2.13
2022-09-01T09:21:52.726Z,2.9
2022-09-01T09:32:00.456Z,2.45
2022-09-01T09:42:10.218Z,2
2022-09-01T09:52:18.462Z,2.13
2022-09-01T10:02:27.381Z,2.43
2022-09-01T10:12:34.407Z,2
2022-09-01T10:22:42.686Z,1.92
2022-09-01T10:32:54.483Z,2.33
2022-09-01T10:42:57.786Z,2.65
2022-09-01T10:53:06.840Z,2.35
2022-09-01T11:03:30.097Z,2.41
2022-09-01T11:13:22.559Z,2.51
2022-09-01T11:23:32.083Z,2.98
2022-09-01T11:33:40.795Z,2.89
2022-09-01T11:43:48.930Z,3.04
2022-09-01T11:53:57.560Z,3.26
2022-09-01T12:04:06.245Z,3.43
2022-09-01T12:14:13.485Z,3.24
2022-09-01T12:24:22.174Z,3.79
2022-09-01T12:34:30.754Z,3.55
2022-09-01T12:44:39.522Z,3.56
2022-09-01T12:54:48.040Z,4.92
2022-09-01T13:04:57.256Z,3.65
2022-09-01T13:15:05.925Z,3.87
2022-09-01T13:25:14.696Z,3.78
2022-09-01T13:35:24.462Z,4.14
2022-09-01T13:45:33.559Z,3.94
2022-09-01T13:55:42.108Z,3.86
2022-09-01T14:05:50.232Z,4.02
2022-09-01T14:15:58.773Z,3.72
2022-09-01T14:26:07.033Z,3.93
2022-09-01T14:36:15.248Z,3.7
2022-09-01T14:46:23.685Z,3.85
2022-09-01T14:56:36.811Z,3.71
2022-09-01T15:06:37.564Z,3.84
2022-09-01T15:16:38.010Z,3.92
2022-09-01T15:26:59.124Z,3.9
2022-09-01T15:36:39.510Z,4.2
2022-09-01T15:46:44.721Z,4.23
2022-09-01T15:56:47.843Z,4.17
2022-09-01T16:06:50.130Z,3.99
2022-09-01T16:16:52.485Z,3.93
2022-09-01T16:27:09.552Z,3.57
2022-09-01T16:37:01.222Z,3.8
2022-09-01T16:47:01.150Z,3.87
2022-09-01T16:57:10.423Z,3.86
2022-09-01T17:07:19.474Z,4.08
2022-09-01T17:17:27.838Z,3.96
2022-09-01T17:27:36.386Z,4
2022-09-01T17:37:44.681Z,4.17
2022-09-01T17:47:57.250Z,4.22
2022-09-01T17:57:57.124Z,4.36
2022-09-01T18:08:05.331Z,4.34
2022-09-01T18:28:16.110Z,4.35
2022-09-01T18:38:27.123Z,4.42
2022-09-01T18:48:42.631Z,4.71
2022-09-01T18:58:34.539Z,4.76
2022-09-01T19:08:35.717Z,4.77
2022-09-01T19:18:40.376Z,4.44
2022-09-01T19:28:40.782Z,5.02
2022-09-01T19:38:39.211Z,5.29
2022-09-01T20:08:55.960Z,7.82
2022-09-01T20:18:54.977Z,7.73
2022-09-01T20:29:02.195Z,6.35
2022-09-01T20:39:10.472Z,6.4
2022-09-01T20:49:18.207Z,6.44
2022-09-01T20:59:26.277Z,5.81
2022-09-01T21:09:34.478Z,6.05
2022-09-01T21:19:48.355Z,7.06
2022-09-01T21:29:46.405Z,6.78
2022-09-01T21:39:54.446Z,6.7
2022-09-01T21:50:02.544Z,7.67
2022-09-01T22:00:10.605Z,8.46
2022-09-01T22:10:18.744Z,8.03
2022-09-01T22:20:26.902Z,9.51
2022-09-01T22:30:35.273Z,9.78
2022-09-01T22:40:43.586Z,7.39
2022-09-01T22:50:51.685Z,7.48
2022-09-01T23:00:59.868Z,8.1
2022-09-01T23:11:08.082Z,7.92
2022-09-01T23:21:19.176Z,7.98
2022-09-01T23:31:17.402Z,8.96
2022-09-01T23:41:25.593Z,9.78
2022-09-01T23:51:33.697Z,8.13
